createdAt,value
2022-12-20T00:00:25.292Z,96.26
2022-12-20T00:01:25.342Z,96.37
2022-12-20T00:02:25.419Z,96.37
2022-12-20T00:03:25.286Z,96.37
2022-12-20T00:04:25.269Z,96.26
2022-12-20T00:05:25.248Z,96.26
2022-12-20T00:06:25.258Z,96.37
2022-12-20T00:07:25.245Z,96.37
2022-12-20T00:08:25.255Z,96.47
2022-12-20T00:09:25.223Z,96.57
2022-12-20T00:10:25.173Z,96.88
2022-12-20T00:11:25.198Z,96.67
2022-12-20T00:12:25.213Z,96.78
2022-12-20T00:13:25.174Z,96.78
2022-12-20T00:14:25.134Z,96.78
2022-12-20T00:15:25.127Z,96.67
2022-12-20T00:16:25.138Z,96.78
2022-12-20T00:17:25.214Z,96.88
2022-12-20T00:18:25.112Z,96.57
2022-12-20T00:19:25.085Z,96.47
2022-12-20T00:20:25.086Z,96.37
2022-12-20T00:21:25.098Z,96.47
2022-12-20T00:22:25.045Z,96.47
2022-12-20T00:23:25.045Z,96.32
2022-12-20T00:24:26.551Z,96.32
2022-12-20T00:25:25.013Z,96.01
2022-12-20T00:26:25.632Z,95.81
2022-12-20T00:27:24.994Z,95.70
2022-12-20T00:28:24.973Z,95.61
2022-12-20T00:29:24.995Z,95.61
2022-12-20T00:30:24.976Z,95.61
2022-12-20T00:31:24.990Z,95.91
2022-12-20T00:32:24.958Z,95.70
2022-12-20T00:33:24.931Z,95.70
2022-12-20T00:34:24.909Z,95.81
2022-12-20T00:35:24.920Z,95.86
2022-12-20T00:36:24.875Z,95.86
2022-12-20T00:37:24.909Z,95.86
2022-12-20T00:38:24.853Z,95.95
2022-12-20T00:39:24.876Z,96.06
2022-12-20T00:40:24.865Z,96.06
2022-12-20T00:41:24.856Z,96.06
2022-12-20T00:42:24.814Z,96.16
2022-12-20T00:43:24.822Z,96.26
2022-12-20T00:44:24.820Z,96.01
2022-12-20T00:45:24.805Z,95.70
2022-12-20T00:46:25.040Z,95.61
2022-12-20T00:47:24.766Z,95.61
2022-12-20T00:48:24.753Z,95.61
2022-12-20T00:49:24.746Z,95.70
2022-12-20T00:50:24.729Z,95.61
2022-12-20T00:51:24.764Z,95.50
2022-12-20T00:52:24.744Z,95.50
2022-12-20T00:53:26.716Z,95.50
2022-12-20T00:54:24.674Z,95.40
2022-12-20T00:55:24.726Z,95.50
2022-12-20T00:56:25.778Z,95.40
2022-12-20T00:57:24.729Z,95.50
2022-12-20T00:58:24.635Z,95.29
2022-12-20T00:59:24.704Z,95.20
2022-12-20T01:00:24.617Z,95.09
2022-12-20T01:01:24.734Z,94.99
2022-12-20T01:02:24.834Z,94.84
2022-12-20T01:03:24.832Z,94.74
2022-12-20T01:04:24.679Z,94.64
2022-12-20T01:05:24.576Z,94.43
2022-12-20T01:06:24.569Z,94.43
2022-12-20T01:07:24.578Z,94.43
2022-12-20T01:08:24.544Z,94.43
2022-12-20T01:09:24.621Z,94.43
2022-12-20T01:10:24.485Z,94.02
2022-12-20T01:11:24.510Z,93.92
2022-12-20T01:12:28.237Z,93.92
2022-12-20T01:13:24.477Z,94.17
2022-12-20T01:14:24.457Z,94.37
2022-12-20T01:15:24.473Z,94.58
2022-12-20T01:16:24.500Z,94.78
2022-12-20T01:17:24.435Z,94.89
2022-12-20T01:18:24.427Z,94.99
2022-12-20T01:19:24.398Z,95.09
2022-12-20T01:20:24.400Z,95.29
2022-12-20T01:21:24.388Z,95.29
2022-12-20T01:22:24.408Z,95.29
2022-12-20T01:23:24.400Z,95.29
2022-12-20T01:24:24.338Z,95.20
2022-12-20T01:25:24.336Z,95.29
2022-12-20T01:26:24.325Z,95.50
2022-12-20T01:27:24.310Z,95.61
2022-12-20T01:28:24.321Z,95.61
2022-12-20T01:29:24.297Z,95.54
2022-12-20T01:30:24.294Z,95.70
2022-12-20T01:31:24.305Z,95.50
2022-12-20T01:32:24.264Z,95.40
2022-12-20T01:33:24.251Z,95.29
2022-12-20T01:34:24.251Z,94.89
2022-12-20T01:35:24.218Z,94.74
2022-12-20T01:36:24.210Z,94.54
2022-12-20T01:37:28.149Z,94.33
2022-12-20T01:38:24.191Z,94.23
2022-12-20T01:39:24.204Z,94.12
2022-12-20T01:40:24.169Z,94.02
2022-12-20T01:41:24.166Z,93.82
2022-12-20T01:42:24.137Z,93.82
2022-12-20T01:43:24.148Z,93.82
2022-12-20T01:44:24.125Z,93.82
2022-12-20T01:45:24.127Z,94.02
2022-12-20T01:46:24.219Z,94.02
2022-12-20T01:47:24.091Z,94.12
2022-12-20T01:48:24.078Z,94.23
2022-12-20T01:49:24.094Z,94.33
2022-12-20T01:50:24.046Z,94.37
2022-12-20T01:51:24.084Z,94.48
2022-12-20T01:52:24.029Z,94.48
2022-12-20T01:53:24.027Z,94.58
2022-12-20T01:54:24.006Z,94.68
2022-12-20T01:55:24.009Z,94.78
2022-12-20T01:56:23.997Z,94.78
2022-12-20T01:57:23.987Z,94.99
2022-12-20T01:58:23.970Z,94.99
2022-12-20T01:59:23.965Z,95.14
2022-12-20T02:00:23.956Z,95.24
2022-12-20T02:01:24.023Z,95.34
2022-12-20T02:02:24.088Z,95.54
2022-12-20T02:03:23.970Z,95.54
2022-12-20T02:04:23.895Z,95.65
2022-12-20T02:05:23.910Z,95.79
2022-12-20T02:06:23.877Z,95.90
2022-12-20T02:07:23.879Z,96.00
2022-12-20T02:08:23.837Z,96.00
2022-12-20T02:09:23.943Z,95.95
2022-12-20T02:10:23.858Z,96.00
2022-12-20T02:11:23.831Z,96.00
2022-12-20T02:12:23.786Z,96.00
2022-12-20T02:13:23.807Z,96.00
2022-12-20T02:14:23.760Z,95.90
2022-12-20T02:15:23.791Z,95.90
2022-12-20T02:16:24.625Z,96.00
2022-12-20T02:17:23.740Z,96.00
2022-12-20T02:18:23.752Z,96.10
2022-12-20T02:19:23.719Z,96.10
2022-12-20T02:20:23.715Z,96.10
2022-12-20T02:21:23.722Z,96.20
2022-12-20T02:22:23.698Z,96.10
2022-12-20T02:23:23.717Z,96.00
2022-12-20T02:24:23.681Z,96.00
2022-12-20T02:25:23.657Z,95.95
2022-12-20T02:26:23.651Z,95.86
2022-12-20T02:27:23.612Z,95.65
2022-12-20T02:28:23.658Z,95.69
2022-12-20T02:29:23.624Z,95.79
2022-12-20T02:30:23.616Z,95.79
2022-12-20T02:31:23.636Z,95.69
2022-12-20T02:32:23.596Z,95.69
2022-12-20T02:33:23.590Z,95.69
2022-12-20T02:34:23.560Z,95.79
2022-12-20T02:35:23.538Z,95.79
2022-12-20T02:36:23.538Z,95.90
2022-12-20T02:37:23.532Z,96.00
2022-12-20T02:38:23.529Z,95.90
2022-12-20T02:39:23.497Z,96.00
2022-12-20T02:40:23.525Z,96.00
2022-12-20T02:41:23.487Z,96.10
2022-12-20T02:42:23.733Z,96.10
2022-12-20T02:43:23.464Z,96.10
2022-12-20T02:44:23.465Z,96.10
2022-12-20T02:45:23.422Z,96.20
2022-12-20T02:46:23.515Z,96.31
2022-12-20T02:47:23.411Z,96.20
2022-12-20T02:48:23.400Z,96.20
2022-12-20T02:49:23.395Z,96.20
2022-12-20T02:50:23.449Z,96.20
2022-12-20T02:51:23.348Z,96.10
2022-12-20T02:52:23.349Z,96.20
2022-12-20T02:53:23.337Z,96.31
2022-12-20T02:54:23.346Z,96.31
2022-12-20T02:55:23.610Z,96.10
2022-12-20T02:56:23.302Z,96.10
2022-12-20T02:57:23.293Z,96.10
2022-12-20T02:58:23.294Z,96.00
2022-12-20T02:59:23.294Z,96.00
2022-12-20T03:00:23.248Z,96.10
2022-12-20T03:01:23.338Z,96.10
2022-12-20T03:02:24.255Z,96.10
2022-12-20T03:03:23.335Z,96.20
2022-12-20T03:04:23.218Z,96.10
2022-12-20T03:05:23.204Z,96.00
2022-12-20T03:06:23.202Z,96.00
2022-12-20T03:07:23.178Z,95.90
2022-12-20T03:08:23.171Z,95.79
2022-12-20T03:09:23.158Z,95.69
2022-12-20T03:10:23.159Z,95.39
2022-12-20T03:11:23.125Z,95.49
2022-12-20T03:12:23.149Z,95.59
2022-12-20T03:13:23.089Z,95.65
2022-12-20T03:14:23.117Z,95.54
2022-12-20T03:15:23.079Z,95.44
2022-12-20T03:16:23.150Z,95.24
2022-12-20T03:17:23.056Z,95.24
2022-12-20T03:18:23.060Z,95.03
2022-12-20T03:19:23.034Z,95.03
2022-12-20T03:20:23.069Z,94.93
2022-12-20T03:21:23.033Z,94.93
2022-12-20T03:22:23.016Z,95.07
2022-12-20T03:23:23.002Z,95.28
2022-12-20T03:24:23.017Z,95.39
2022-12-20T03:25:22.975Z,95.39
2022-12-20T03:26:22.982Z,95.49
2022-12-20T03:27:23.050Z,95.49
2022-12-20T03:28:22.941Z,95.39
2022-12-20T03:29:22.930Z,95.49
2022-12-20T03:30:22.921Z,95.24
2022-12-20T03:31:22.941Z,95.14
2022-12-20T03:32:22.912Z,94.93
2022-12-20T03:33:22.871Z,94.37
2022-12-20T03:34:22.882Z,94.07
2022-12-20T03:35:22.862Z,93.86
2022-12-20T03:36:22.912Z,93.76
2022-12-20T03:37:22.854Z,93.55
2022-12-20T03:38:22.833Z,93.66
2022-12-20T03:39:22.812Z,93.66
2022-12-20T03:40:22.816Z,93.86
2022-12-20T03:41:22.817Z,94.11
2022-12-20T03:42:22.810Z,94.27
2022-12-20T03:43:22.772Z,94.32
2022-12-20T03:44:22.821Z,94.52
2022-12-20T03:45:22.744Z,94.52
2022-12-20T03:46:22.763Z,94.52
2022-12-20T03:47:22.734Z,94.73
2022-12-20T03:48:22.761Z,94.83
2022-12-20T03:49:22.673Z,94.93
2022-12-20T03:50:22.706Z,95.03
2022-12-20T03:51:22.683Z,95.14
2022-12-20T03:52:22.666Z,95.14
2022-12-20T03:53:22.640Z,95.03
2022-12-20T03:54:22.670Z,95.03
2022-12-20T03:55:22.636Z,95.14
2022-12-20T03:56:22.629Z,95.03
2022-12-20T03:57:22.605Z,95.03
2022-12-20T03:58:22.629Z,95.34
2022-12-20T03:59:22.616Z,95.54
2022-12-20T04:00:22.573Z,95.65
2022-12-20T04:01:22.709Z,96.16
2022-12-20T04:02:22.802Z,96.16
2022-12-20T04:03:22.593Z,96.47
2022-12-20T04:04:22.769Z,96.82
2022-12-20T04:05:22.512Z,97.03
2022-12-20T04:06:22.547Z,97.23
2022-12-20T04:07:22.493Z,97.54
2022-12-20T04:08:22.488Z,97.85
2022-12-20T04:09:22.498Z,97.85
2022-12-20T04:10:22.509Z,97.95
2022-12-20T04:11:22.464Z,98.05
2022-12-20T04:12:22.452Z,98.05
2022-12-20T04:13:22.452Z,98.16
2022-12-20T04:14:22.448Z,98.25
2022-12-20T04:15:22.414Z,98.25
2022-12-20T04:16:22.484Z,98.36
2022-12-20T04:17:22.378Z,98.36
2022-12-20T04:18:22.363Z,98.57
2022-12-20T04:19:22.540Z,98.87
2022-12-20T04:20:22.391Z,98.87
2022-12-20T04:21:22.352Z,99.18
2022-12-20T04:22:22.345Z,99.38
2022-12-20T04:23:22.319Z,99.49
2022-12-20T04:24:22.305Z,99.74
2022-12-20T04:25:22.300Z,99.74
2022-12-20T04:26:22.304Z,99.74
2022-12-20T04:27:22.273Z,99.95
2022-12-20T04:28:22.272Z,99.84
2022-12-20T04:29:22.236Z,99.84
2022-12-20T04:30:22.226Z,99.84
2022-12-20T04:31:24.409Z,99.79
2022-12-20T04:32:22.224Z,99.69
2022-12-20T04:33:22.197Z,99.69
2022-12-20T04:34:22.210Z,99.84
2022-12-20T04:35:22.187Z,99.95
2022-12-20T04:36:22.178Z,99.99
2022-12-20T04:37:22.158Z,99.99
2022-12-20T04:38:22.147Z,99.99
2022-12-20T04:39:22.139Z,99.99
2022-12-20T04:40:22.137Z,99.99
2022-12-20T04:41:22.507Z,99.99
2022-12-20T04:42:22.147Z,99.99
2022-12-20T04:43:22.098Z,99.99
2022-12-20T04:44:22.091Z,99.99
2022-12-20T04:45:22.070Z,99.99
2022-12-20T04:46:22.101Z,99.99
2022-12-20T04:47:22.098Z,99.99
2022-12-20T04:48:55.001Z,99.99
2022-12-20T04:49:23.005Z,99.99
2022-12-20T04:50:22.002Z,99.99
2022-12-20T04:51:21.985Z,99.99
2022-12-20T04:52:22.004Z,99.99
2022-12-20T04:53:22.000Z,99.99
2022-12-20T04:54:21.966Z,99.99
2022-12-20T04:55:21.960Z,99.99
2022-12-20T04:56:22.003Z,99.99
2022-12-20T04:57:21.919Z,99.99
2022-12-20T04:58:21.937Z,99.99
2022-12-20T04:59:21.932Z,99.99
2022-12-20T05:00:21.886Z,99.99
2022-12-20T05:01:22.083Z,99.99
2022-12-20T05:02:21.998Z,99.99
2022-12-20T05:03:21.916Z,99.99
2022-12-20T05:04:21.865Z,99.99
2022-12-20T05:05:21.862Z,99.99
2022-12-20T05:06:21.853Z,99.99
2022-12-20T05:07:21.848Z,99.99
2022-12-20T05:08:21.850Z,99.99
2022-12-20T05:09:21.807Z,99.99
2022-12-20T05:10:21.820Z,99.99
2022-12-20T05:11:22.374Z,99.99
2022-12-20T05:12:21.792Z,99.99
2022-12-20T05:13:21.759Z,99.99
2022-12-20T05:14:21.751Z,99.99
2022-12-20T05:15:21.729Z,99.99
2022-12-20T05:16:21.795Z,99.99
2022-12-20T05:17:21.746Z,99.99
2022-12-20T05:18:21.698Z,99.99
2022-12-20T05:19:21.719Z,99.99
2022-12-20T05:20:21.683Z,99.99
2022-12-20T05:21:21.667Z,99.99
2022-12-20T05:22:21.688Z,99.99
2022-12-20T05:23:21.639Z,99.99
2022-12-20T05:24:21.700Z,99.99
2022-12-20T05:25:21.606Z,99.99
2022-12-20T05:26:21.620Z,99.99
2022-12-20T05:27:21.580Z,99.99
2022-12-20T05:28:21.581Z,99.99
2022-12-20T05:29:21.573Z,99.99
2022-12-20T05:30:21.585Z,99.99
2022-12-20T05:31:21.556Z,99.99
2022-12-20T05:32:21.552Z,99.99
2022-12-20T05:33:21.501Z,99.99
2022-12-20T05:34:28.595Z,99.99
2022-12-20T05:35:21.486Z,99.99
2022-12-20T05:36:21.512Z,99.99
2022-12-20T05:37:24.125Z,99.99
2022-12-20T05:38:21.476Z,99.99
2022-12-20T05:39:21.478Z,99.99
2022-12-20T05:40:21.445Z,99.99
2022-12-20T05:41:21.443Z,99.99
2022-12-20T05:42:21.423Z,99.99
2022-12-20T05:43:21.401Z,99.99
2022-12-20T05:44:21.396Z,99.99
2022-12-20T05:45:21.399Z,99.99
2022-12-20T05:46:21.521Z,99.99
2022-12-20T05:47:21.661Z,99.99
2022-12-20T05:48:21.985Z,99.99
2022-12-20T05:49:21.345Z,99.99
2022-12-20T05:50:21.344Z,99.99
2022-12-20T05:51:21.375Z,99.99
2022-12-20T05:52:21.349Z,99.99
2022-12-20T05:53:21.296Z,99.99
2022-12-20T05:54:21.285Z,99.99
2022-12-20T05:55:21.274Z,99.99
2022-12-20T05:56:21.269Z,99.99
2022-12-20T05:57:21.277Z,99.99
2022-12-20T05:58:21.247Z,99.99
2022-12-20T05:59:21.238Z,99.99
2022-12-20T06:00:21.221Z,99.99
2022-12-20T06:01:21.332Z,99.99
2022-12-20T06:02:21.431Z,99.99
2022-12-20T06:03:21.421Z,99.99
2022-12-20T06:04:21.237Z,99.99
2022-12-20T06:05:21.153Z,99.99
2022-12-20T06:06:21.167Z,99.99
2022-12-20T06:07:21.197Z,99.99
2022-12-20T06:08:21.125Z,99.99
2022-12-20T06:09:21.117Z,99.99
2022-12-20T06:10:21.154Z,99.99
2022-12-20T06:11:27.678Z,99.99
2022-12-20T06:12:22.097Z,99.99
2022-12-20T06:13:21.071Z,99.99
2022-12-20T06:14:21.061Z,99.99
2022-12-20T06:15:21.060Z,99.99
2022-12-20T06:16:21.110Z,99.99
2022-12-20T06:17:21.018Z,99.99
2022-12-20T06:18:21.039Z,99.99
2022-12-20T06:19:21.795Z,99.99
2022-12-20T06:20:21.012Z,99.99
2022-12-20T06:21:20.978Z,99.99
2022-12-20T06:22:21.008Z,99.99
2022-12-20T06:23:20.954Z,99.99
2022-12-20T06:24:20.969Z,99.99
2022-12-20T06:25:20.926Z,99.99
2022-12-20T06:26:20.946Z,99.99
2022-12-20T06:27:21.010Z,99.99
2022-12-20T06:28:20.958Z,99.99
2022-12-20T06:29:21.088Z,99.99
2022-12-20T06:30:20.952Z,99.99
2022-12-20T06:31:21.053Z,99.99
2022-12-20T06:32:20.999Z,99.99
2022-12-20T06:33:20.997Z,99.99
2022-12-20T06:34:21.009Z,99.99
2022-12-20T06:35:20.950Z,99.99
2022-12-20T06:36:20.926Z,99.99
2022-12-20T06:37:20.955Z,99.99
2022-12-20T06:38:21.119Z,99.99
2022-12-20T06:39:20.929Z,99.99
2022-12-20T06:40:20.786Z,99.99
2022-12-20T06:41:20.876Z,99.99
2022-12-20T06:42:20.775Z,99.99
2022-12-20T06:43:20.717Z,99.99
2022-12-20T06:44:20.712Z,99.99
2022-12-20T06:45:20.708Z,99.99
2022-12-20T06:46:20.756Z,99.99
2022-12-20T06:47:20.686Z,99.99
2022-12-20T06:48:20.660Z,99.99
2022-12-20T06:49:20.679Z,99.99
2022-12-20T06:50:20.644Z,99.99
2022-12-20T06:51:20.670Z,99.99
2022-12-20T06:52:20.619Z,99.99
2022-12-20T06:53:20.617Z,99.99
2022-12-20T06:54:20.598Z,99.99
2022-12-20T06:55:20.597Z,99.99
2022-12-20T06:56:20.597Z,99.99
2022-12-20T06:57:20.585Z,99.99
2022-12-20T06:58:20.553Z,99.99
2022-12-20T06:59:20.562Z,99.99
2022-12-20T07:00:21.374Z,99.99
2022-12-20T07:01:20.645Z,99.99
2022-12-20T07:02:20.661Z,99.99
2022-12-20T07:03:20.666Z,99.99
2022-12-20T07:04:20.495Z,99.99
2022-12-20T07:05:20.486Z,99.99
2022-12-20T07:06:20.498Z,99.99
2022-12-20T07:07:20.459Z,99.99
2022-12-20T07:08:20.447Z,99.99
2022-12-20T07:09:20.452Z,99.99
2022-12-20T07:10:20.424Z,99.99
2022-12-20T07:11:20.412Z,99.99
2022-12-20T07:12:20.593Z,99.99
2022-12-20T07:13:20.387Z,99.99
2022-12-20T07:14:20.379Z,99.99
2022-12-20T07:15:20.383Z,99.99
2022-12-20T07:16:21.025Z,99.99
2022-12-20T07:17:20.368Z,99.99
2022-12-20T07:18:20.353Z,99.99
2022-12-20T07:19:20.326Z,99.99
2022-12-20T07:20:20.343Z,99.99
2022-12-20T07:21:20.289Z,99.99
2022-12-20T07:22:20.271Z,99.99
2022-12-20T07:23:20.327Z,99.99
2022-12-20T07:24:20.284Z,99.99
2022-12-20T07:25:20.247Z,99.99
2022-12-20T07:26:20.240Z,99.99
2022-12-20T07:27:20.248Z,99.99
2022-12-20T07:28:20.231Z,99.99
2022-12-20T07:29:20.242Z,99.99
2022-12-20T07:30:20.183Z,99.99
2022-12-20T07:31:20.228Z,99.99
2022-12-20T07:32:20.274Z,99.99
2022-12-20T07:33:20.169Z,99.99
2022-12-20T07:34:20.174Z,99.99
2022-12-20T07:35:20.199Z,99.99
2022-12-20T07:36:20.130Z,99.99
2022-12-20T07:37:20.136Z,99.99
2022-12-20T07:38:20.110Z,99.99
2022-12-20T07:39:20.127Z,99.99
2022-12-20T07:40:20.231Z,99.99
2022-12-20T07:41:20.085Z,99.99
2022-12-20T07:42:20.048Z,99.99
2022-12-20T07:43:20.053Z,99.99
2022-12-20T07:44:20.045Z,99.99
2022-12-20T07:45:20.084Z,99.99
2022-12-20T07:46:20.039Z,99.99
2022-12-20T07:47:20.023Z,99.99
2022-12-20T07:48:22.001Z,99.99
2022-12-20T07:49:19.983Z,99.99
2022-12-20T07:50:20.103Z,99.99
2022-12-20T07:51:19.990Z,99.99
2022-12-20T07:52:19.952Z,99.99
2022-12-20T07:53:19.940Z,99.99
2022-12-20T07:54:19.943Z,99.99
2022-12-20T07:55:19.916Z,99.99
2022-12-20T07:56:19.921Z,99.99
2022-12-20T07:57:19.970Z,99.99
2022-12-20T07:58:19.873Z,99.99
2022-12-20T07:59:19.870Z,99.99
2022-12-20T08:00:20.181Z,99.99
2022-12-20T08:01:20.033Z,99.99
2022-12-20T08:02:19.995Z,99.99
2022-12-20T08:03:19.939Z,99.99
2022-12-20T08:04:19.818Z,99.99
2022-12-20T08:05:19.820Z,99.99
2022-12-20T08:06:19.794Z,99.99
2022-12-20T08:07:19.796Z,99.99
2022-12-20T08:08:19.755Z,99.99
2022-12-20T08:09:19.785Z,99.99
2022-12-20T08:10:19.745Z,99.99
2022-12-20T08:11:19.761Z,99.99
2022-12-20T08:12:19.711Z,99.99
2022-12-20T08:13:19.717Z,99.99
2022-12-20T08:14:19.720Z,99.99
2022-12-20T08:15:19.679Z,99.99
2022-12-20T08:16:19.768Z,99.99
2022-12-20T08:17:19.793Z,99.99
2022-12-20T08:18:19.654Z,99.99
2022-12-20T08:19:19.656Z,99.99
2022-12-20T08:20:19.636Z,99.99
2022-12-20T08:21:19.627Z,99.99
2022-12-20T08:22:19.619Z,99.99
2022-12-20T08:23:19.632Z,99.99
2022-12-20T08:24:19.572Z,99.99
2022-12-20T08:25:19.569Z,99.99
2022-12-20T08:26:19.562Z,99.90
2022-12-20T08:27:19.673Z,99.79
2022-12-20T08:28:19.549Z,99.90
2022-12-20T08:29:19.554Z,99.90
2022-12-20T08:30:19.508Z,99.90
2022-12-20T08:31:19.613Z,99.49
2022-12-20T08:32:19.495Z,99.38
2022-12-20T08:33:19.492Z,99.38
2022-12-20T08:34:19.462Z,99.38
2022-12-20T08:35:19.486Z,99.28
2022-12-20T08:36:19.472Z,99.08
2022-12-20T08:37:19.560Z,98.93
2022-12-20T08:38:19.532Z,98.72
2022-12-20T08:39:19.593Z,98.62
2022-12-20T08:40:19.572Z,98.42
2022-12-20T08:41:19.631Z,98.52
2022-12-20T08:42:19.638Z,98.62
2022-12-20T08:43:19.642Z,98.62
2022-12-20T08:44:19.383Z,98.32
2022-12-20T08:45:19.354Z,98.32
2022-12-20T08:46:19.364Z,98.11
2022-12-20T08:47:19.361Z,98.00
2022-12-20T08:48:19.321Z,97.80
2022-12-20T08:49:19.336Z,97.75
2022-12-20T08:50:19.288Z,97.75
2022-12-20T08:51:19.409Z,97.45
2022-12-20T08:52:19.263Z,97.55
2022-12-20T08:53:19.548Z,97.75
2022-12-20T08:54:19.245Z,97.55
2022-12-20T08:55:22.088Z,97.75
2022-12-20T08:56:20.257Z,97.65
2022-12-20T08:57:19.250Z,97.55
2022-12-20T08:58:19.205Z,97.65
2022-12-20T08:59:19.186Z,97.45
2022-12-20T09:00:19.173Z,97.34
2022-12-20T09:01:19.250Z,97.65
2022-12-20T09:02:19.333Z,97.24
2022-12-20T09:03:19.264Z,97.34
2022-12-20T09:04:19.125Z,97.24
2022-12-20T09:05:19.119Z,97.14
2022-12-20T09:06:19.100Z,96.89
2022-12-20T09:07:19.092Z,96.99
2022-12-20T09:08:19.092Z,97.30
2022-12-20T09:09:19.444Z,97.30
2022-12-20T09:10:19.082Z,97.20
2022-12-20T09:11:19.120Z,96.89
2022-12-20T09:12:19.036Z,96.69
2022-12-20T09:13:19.044Z,96.28
2022-12-20T09:14:19.040Z,96.17
2022-12-20T09:15:19.004Z,96.03
2022-12-20T09:16:19.078Z,95.97
2022-12-20T09:17:19.000Z,95.87
2022-12-20T09:18:18.983Z,95.87
2022-12-20T09:19:18.973Z,95.97
2022-12-20T09:20:18.932Z,95.87
2022-12-20T09:21:18.973Z,96.07
2022-12-20T09:22:18.936Z,96.17
2022-12-20T09:23:18.927Z,96.03
2022-12-20T09:24:18.904Z,95.92
2022-12-20T09:25:18.904Z,96.03
2022-12-20T09:26:18.897Z,96.23
2022-12-20T09:27:18.888Z,95.92
2022-12-20T09:28:18.868Z,95.92
2022-12-20T09:29:25.839Z,95.62
2022-12-20T09:30:19.827Z,95.51
2022-12-20T09:31:18.895Z,95.00
2022-12-20T09:32:18.831Z,94.80
2022-12-20T09:33:18.817Z,94.80
2022-12-20T09:34:18.787Z,94.90
2022-12-20T09:35:23.006Z,94.70
2022-12-20T09:36:18.800Z,94.75
2022-12-20T09:37:18.752Z,94.65
2022-12-20T09:38:18.748Z,94.75
2022-12-20T09:39:18.732Z,94.55
2022-12-20T09:40:18.746Z,94.65
2022-12-20T09:41:22.614Z,94.80
2022-12-20T09:42:18.685Z,94.70
2022-12-20T09:43:18.693Z,94.80
2022-12-20T09:44:18.666Z,94.90
2022-12-20T09:45:18.707Z,94.80
2022-12-20T09:46:18.713Z,94.39
2022-12-20T09:47:18.650Z,94.45
2022-12-20T09:48:18.625Z,94.59
2022-12-20T09:49:18.653Z,93.84
2022-12-20T09:50:18.598Z,93.52
2022-12-20T09:51:18.629Z,93.43
2022-12-20T09:52:18.610Z,93.73
2022-12-20T09:53:18.922Z,93.52
2022-12-20T09:54:18.575Z,93.52
2022-12-20T09:55:18.594Z,93.32
2022-12-20T09:56:18.535Z,93.32
2022-12-20T09:57:18.546Z,93.01
2022-12-20T09:58:18.568Z,92.71
2022-12-20T09:59:18.523Z,93.22
2022-12-20T10:00:18.501Z,93.22
2022-12-20T10:01:24.453Z,93.32
2022-12-20T10:02:55.214Z,93.22
2022-12-20T10:03:19.665Z,93.32
2022-12-20T10:04:18.720Z,93.43
2022-12-20T10:05:18.593Z,93.52
2022-12-20T10:06:18.450Z,93.43
2022-12-20T10:07:18.567Z,93.52
2022-12-20T10:08:18.438Z,93.84
2022-12-20T10:09:18.896Z,93.73
2022-12-20T10:10:18.482Z,93.73
2022-12-20T10:11:18.474Z,93.93
2022-12-20T10:12:18.500Z,94.45
2022-12-20T10:13:18.610Z,94.24
2022-12-20T10:14:18.504Z,94.24
2022-12-20T10:15:18.518Z,93.84
2022-12-20T10:16:18.589Z,93.93
2022-12-20T10:17:18.557Z,94.18
2022-12-20T10:18:18.538Z,93.88
2022-12-20T10:19:18.585Z,93.32
2022-12-20T10:20:18.496Z,93.63
2022-12-20T10:21:18.528Z,93.63
2022-12-20T10:22:18.519Z,93.52
2022-12-20T10:23:18.246Z,93.73
2022-12-20T10:24:18.245Z,93.84
2022-12-20T10:25:18.247Z,93.84
2022-12-20T10:26:18.199Z,93.52
2022-12-20T10:27:18.212Z,93.52
2022-12-20T10:28:18.203Z,93.32
2022-12-20T10:29:18.217Z,92.56
2022-12-20T10:30:18.216Z,92.36
2022-12-20T10:31:18.226Z,92.25
2022-12-20T10:32:18.225Z,92.15
2022-12-20T10:33:18.314Z,92.05
2022-12-20T10:34:18.277Z,92.05
2022-12-20T10:35:18.225Z,91.85
2022-12-20T10:36:18.322Z,91.74
2022-12-20T10:37:18.272Z,91.54
2022-12-20T10:38:18.322Z,91.33
2022-12-20T10:39:18.078Z,91.44
2022-12-20T10:40:18.057Z,91.44
2022-12-20T10:41:22.583Z,91.54
2022-12-20T10:42:19.053Z,91.54
2022-12-20T10:43:18.021Z,91.64
2022-12-20T10:44:18.014Z,91.74
2022-12-20T10:45:17.986Z,91.54
2022-12-20T10:46:18.059Z,91.64
2022-12-20T10:47:17.958Z,91.44
2022-12-20T10:48:18.035Z,91.54
2022-12-20T10:49:18.626Z,91.64
2022-12-20T10:50:17.951Z,91.54
2022-12-20T10:51:17.971Z,91.85
2022-12-20T10:52:17.913Z,91.54
2022-12-20T10:53:17.926Z,91.64
2022-12-20T10:54:17.923Z,91.74
2022-12-20T10:55:17.887Z,91.95
2022-12-20T10:56:17.869Z,92.05
2022-12-20T10:57:17.895Z,92.25
2022-12-20T10:58:17.852Z,92.05
2022-12-20T10:59:17.832Z,92.15
2022-12-20T11:00:17.824Z,92.15
2022-12-20T11:01:17.836Z,92.25
2022-12-20T11:02:17.910Z,92.36
2022-12-20T11:03:17.946Z,92.25
2022-12-20T11:04:17.820Z,92.15
2022-12-20T11:05:17.762Z,92.25
2022-12-20T11:06:17.805Z,92.25
2022-12-20T11:07:17.742Z,91.91
2022-12-20T11:08:37.484Z,91.91
2022-12-20T11:09:19.182Z,92.01
2022-12-20T11:10:17.777Z,92.11
2022-12-20T11:11:17.722Z,92.01
2022-12-20T11:12:17.702Z,92.01
2022-12-20T11:13:17.662Z,91.80
2022-12-20T11:14:17.664Z,91.91
2022-12-20T11:15:17.643Z,92.11
2022-12-20T11:16:17.681Z,92.01
2022-12-20T11:17:17.623Z,91.80
2022-12-20T11:18:17.610Z,91.80
2022-12-20T11:19:17.593Z,91.60
2022-12-20T11:20:17.618Z,91.70
2022-12-20T11:21:21.561Z,91.80
2022-12-20T11:22:18.563Z,91.91
2022-12-20T11:23:17.551Z,91.80
2022-12-20T11:24:17.546Z,91.70
2022-12-20T11:25:17.523Z,91.56
2022-12-20T11:26:17.523Z,91.56
2022-12-20T11:27:17.525Z,91.35
2022-12-20T11:28:17.506Z,91.15
2022-12-20T11:29:17.502Z,91.35
2022-12-20T11:30:17.489Z,91.35
2022-12-20T11:31:17.487Z,91.05
2022-12-20T11:32:17.488Z,91.05
2022-12-20T11:33:17.429Z,90.64
2022-12-20T11:34:17.438Z,90.74
2022-12-20T11:35:17.409Z,90.84
2022-12-20T11:36:17.461Z,90.94
2022-12-20T11:37:17.390Z,91.05
2022-12-20T11:38:17.402Z,91.05
2022-12-20T11:39:17.362Z,91.05
2022-12-20T11:40:17.380Z,91.15
2022-12-20T11:41:17.350Z,91.11
2022-12-20T11:42:17.363Z,91.00
2022-12-20T11:43:17.323Z,91.11
2022-12-20T11:44:26.677Z,90.90
2022-12-20T11:45:18.299Z,90.90
2022-12-20T11:46:17.347Z,90.80
2022-12-20T11:47:17.378Z,90.59
2022-12-20T11:48:17.278Z,90.70
2022-12-20T11:49:17.272Z,90.59
2022-12-20T11:50:24.531Z,90.59
2022-12-20T11:51:21.321Z,90.70
2022-12-20T11:52:19.899Z,90.49
2022-12-20T11:53:17.227Z,90.80
2022-12-20T11:54:17.217Z,90.94
2022-12-20T11:55:17.190Z,91.05
2022-12-20T11:56:17.201Z,91.05
2022-12-20T11:57:17.215Z,91.15
2022-12-20T11:58:19.475Z,91.05
2022-12-20T11:59:17.139Z,91.15
2022-12-20T12:00:17.155Z,91.15
2022-12-20T12:01:17.125Z,90.94
2022-12-20T12:02:17.210Z,91.05
2022-12-20T12:03:17.227Z,91.15
2022-12-20T12:04:17.097Z,91.05
2022-12-20T12:05:17.162Z,91.15
2022-12-20T12:06:17.088Z,91.15
2022-12-20T12:07:17.052Z,91.25
2022-12-20T12:08:18.449Z,91.35
2022-12-20T12:09:17.120Z,91.25
2022-12-20T12:10:17.155Z,91.46
2022-12-20T12:11:47.744Z,91.56
2022-12-20T12:12:17.999Z,91.66
2022-12-20T12:13:16.995Z,91.86
2022-12-20T12:14:16.996Z,91.96
2022-12-20T12:15:17.612Z,92.17
2022-12-20T12:16:16.988Z,92.27
2022-12-20T12:17:16.944Z,92.27
2022-12-20T12:18:17.629Z,92.17
2022-12-20T12:19:16.943Z,91.96
2022-12-20T12:20:17.057Z,91.86
2022-12-20T12:21:16.896Z,91.76
2022-12-20T12:22:16.889Z,91.86
2022-12-20T12:23:16.878Z,91.96
2022-12-20T12:24:16.871Z,92.07
2022-12-20T12:25:16.852Z,91.96
2022-12-20T12:26:16.853Z,92.11
2022-12-20T12:27:16.828Z,92.21
2022-12-20T12:28:16.810Z,91.91
2022-12-20T12:29:16.830Z,91.80
2022-12-20T12:30:16.892Z,91.80
2022-12-20T12:31:16.839Z,91.39
2022-12-20T12:32:16.897Z,91.15
2022-12-20T12:33:23.921Z,91.25
2022-12-20T12:34:17.765Z,91.25
2022-12-20T12:35:16.758Z,91.35
2022-12-20T12:36:16.733Z,91.35
2022-12-20T12:37:16.710Z,91.35
2022-12-20T12:38:16.724Z,91.25
2022-12-20T12:39:16.688Z,91.35
2022-12-20T12:40:16.792Z,91.46
2022-12-20T12:41:16.663Z,91.66
2022-12-20T12:42:16.657Z,91.66
2022-12-20T12:43:16.649Z,91.80
2022-12-20T12:44:16.655Z,92.01
2022-12-20T12:45:16.635Z,92.32
2022-12-20T12:46:16.728Z,92.62
2022-12-20T12:47:16.598Z,92.83
2022-12-20T12:48:16.605Z,92.93
2022-12-20T12:49:16.586Z,93.13
2022-12-20T12:50:16.608Z,93.13
2022-12-20T12:51:16.560Z,93.13
2022-12-20T12:52:16.552Z,93.03